sensor_id;sensor_type;location;lat;lon;timestamp;P1;durP1;ratioP1;P2;durP2;ratioP2
34741;SDS011;20968;42.696;23.360;2022-12-07T00:02:14;41.78;;;16.90;;
34741;SDS011;20968;42.696;23.360;2022-12-07T00:04:39;33.75;;;17.58;;
34741;SDS011;20968;42.696;23.360;2022-12-07T00:07:05;46.08;;;18.65;;
34741;SDS011;20968;42.696;23.360;2022-12-07T00:09:30;41.10;;;19.25;;
34741;SDS011;20968;42.696;23.360;2022-12-07T00:11:56;39.30;;;19.42;;
34741;SDS011;20968;42.696;23.360;2022-12-07T00:14:21;41.65;;;18.33;;
34741;SDS011;20968;42.696;23.360;2022-12-07T00:16:48;40.15;;;18.25;;
34741;SDS011;20968;42.696;23.360;2022-12-07T00:19:16;43.88;;;19.23;;
34741;SDS011;20968;42.696;23.360;2022-12-07T00:21:42;40.53;;;16.63;;
34741;SDS011;20968;42.696;23.360;2022-12-07T00:24:09;37.63;;;15.35;;
34741;SDS011;20968;42.696;23.360;2022-12-07T00:26:36;32.15;;;15.30;;
34741;SDS011;20968;42.696;23.360;2022-12-07T00:29:04;32.33;;;16.08;;
34741;SDS011;20968;42.696;23.360;2022-12-07T00:31:34;42.95;;;16.38;;
34741;SDS011;20968;42.696;23.360;2022-12-07T00:34:04;36.08;;;15.05;;
34741;SDS011;20968;42.696;23.360;2022-12-07T00:36:30;31.52;;;15.30;;
34741;SDS011;20968;42.696;23.360;2022-12-07T00:38:57;42.40;;;17.83;;
34741;SDS011;20968;42.696;23.360;2022-12-07T00:41:24;39.65;;;18.35;;
34741;SDS011;20968;42.696;23.360;2022-12-07T00:43:50;37.58;;;17.40;;
34741;SDS011;20968;42.696;23.360;2022-12-07T00:46:16;31.48;;;16.45;;
34741;SDS011;20968;42.696;23.360;2022-12-07T00:48:43;39.42;;;17.98;;
34741;SDS011;20968;42.696;23.360;2022-12-07T00:51:09;31.23;;;15.93;;
34741;SDS011;20968;42.696;23.360;2022-12-07T00:53:36;36.78;;;14.75;;
34741;SDS011;20968;42.696;23.360;2022-12-07T00:56:06;36.58;;;16.60;;
34741;SDS011;20968;42.696;23.360;2022-12-07T00:58:33;40.67;;;16.35;;
34741;SDS011;20968;42.696;23.360;2022-12-07T01:01:02;36.97;;;18.27;;
34741;SDS011;20968;42.696;23.360;2022-12-07T01:03:30;45.50;;;18.35;;
34741;SDS011;20968;42.696;23.360;2022-12-07T01:05:56;37.72;;;17.33;;
34741;SDS011;20968;42.696;23.360;2022-12-07T01:08:22;42.60;;;17.92;;
34741;SDS011;20968;42.696;23.360;2022-12-07T01:10:49;48.42;;;19.33;;
34741;SDS011;20968;42.696;23.360;2022-12-07T01:13:22;48.20;;;19.08;;
34741;SDS011;20968;42.696;23.360;2022-12-07T01:15:47;38.40;;;17.50;;
34741;SDS011;20968;42.696;23.360;2022-12-07T01:18:13;34.70;;;16.60;;
34741;SDS011;20968;42.696;23.360;2022-12-07T01:20:38;45.53;;;19.35;;
34741;SDS011;20968;42.696;23.360;2022-12-07T01:23:03;49.08;;;21.95;;
34741;SDS011;20968;42.696;23.360;2022-12-07T01:25:29;44.45;;;18.80;;
34741;SDS011;20968;42.696;23.360;2022-12-07T01:27:54;39.85;;;18.88;;
34741;SDS011;20968;42.696;23.360;2022-12-07T01:30:20;40.67;;;18.83;;
34741;SDS011;20968;42.696;23.360;2022-12-07T01:32:45;39.83;;;18.70;;
34741;SDS011;20968;42.696;23.360;2022-12-07T01:35:11;47.33;;;18.17;;
34741;SDS011;20968;42.696;23.360;2022-12-07T01:37:37;36.08;;;16.63;;
34741;SDS011;20968;42.696;23.360;2022-12-07T01:40:04;34.92;;;16.83;;
34741;SDS011;20968;42.696;23.360;2022-12-07T01:42:32;37.67;;;17.00;;
34741;SDS011;20968;42.696;23.360;2022-12-07T01:48:00;33.22;;;17.25;;
34741;SDS011;20968;42.696;23.360;2022-12-07T01:50:27;30.77;;;15.82;;
34741;SDS011;20968;42.696;23.360;2022-12-07T01:52:54;43.47;;;19.27;;
34741;SDS011;20968;42.696;23.360;2022-12-07T01:55:22;35.97;;;17.50;;
34741;SDS011;20968;42.696;23.360;2022-12-07T01:57:48;39.15;;;18.45;;
34741;SDS011;20968;42.696;23.360;2022-12-07T02:00:16;36.17;;;17.42;;
34741;SDS011;20968;42.696;23.360;2022-12-07T02:05:16;40.03;;;16.38;;
34741;SDS011;20968;42.696;23.360;2022-12-07T02:07:42;34.08;;;15.43;;
34741;SDS011;20968;42.696;23.360;2022-12-07T02:10:16;37.45;;;17.95;;
34741;SDS011;20968;42.696;23.360;2022-12-07T02:12:43;41.53;;;17.08;;
34741;SDS011;20968;42.696;23.360;2022-12-07T02:15:11;40.72;;;18.15;;
34741;SDS011;20968;42.696;23.360;2022-12-07T02:18:00;35.45;;;17.00;;
34741;SDS011;20968;42.696;23.360;2022-12-07T02:20:33;39.35;;;16.95;;
34741;SDS011;20968;42.696;23.360;2022-12-07T02:31:43;37.97;;;17.73;;
34741;SDS011;20968;42.696;23.360;2022-12-07T02:34:44;37.63;;;17.20;;
34741;SDS011;20968;42.696;23.360;2022-12-07T02:37:25;38.97;;;16.88;;
34741;SDS011;20968;42.696;23.360;2022-12-07T02:40:02;38.05;;;17.42;;
34741;SDS011;20968;42.696;23.360;2022-12-07T02:42:42;40.67;;;17.17;;
34741;SDS011;20968;42.696;23.360;2022-12-07T02:45:14;43.07;;;17.63;;
34741;SDS011;20968;42.696;23.360;2022-12-07T02:47:42;44.13;;;19.95;;
34741;SDS011;20968;42.696;23.360;2022-12-07T02:50:09;35.75;;;16.20;;
34741;SDS011;20968;42.696;23.360;2022-12-07T02:52:35;39.88;;;17.27;;
34741;SDS011;20968;42.696;23.360;2022-12-07T02:55:01;34.47;;;16.60;;
34741;SDS011;20968;42.696;23.360;2022-12-07T03:00:43;33.67;;;16.30;;
34741;SDS011;20968;42.696;23.360;2022-12-07T03:03:17;42.15;;;16.50;;
34741;SDS011;20968;42.696;23.360;2022-12-07T03:11:22;38.08;;;16.63;;
34741;SDS011;20968;42.696;23.360;2022-12-07T03:14:29;30.38;;;13.98;;
34741;SDS011;20968;42.696;23.360;2022-12-07T03:16:59;32.65;;;15.45;;
34741;SDS011;20968;42.696;23.360;2022-12-07T03:19:30;38.53;;;15.85;;
34741;SDS011;20968;42.696;23.360;2022-12-07T03:22:06;38.35;;;16.05;;
34741;SDS011;20968;42.696;23.360;2022-12-07T03:24:53;34.63;;;16.90;;
34741;SDS011;20968;42.696;23.360;2022-12-07T03:27:24;37.17;;;16.83;;
34741;SDS011;20968;42.696;23.360;2022-12-07T03:30:15;35.03;;;15.65;;
34741;SDS011;20968;42.696;23.360;2022-12-07T03:35:43;47.40;;;20.73;;
34741;SDS011;20968;42.696;23.360;2022-12-07T03:38:18;44.15;;;18.83;;
34741;SDS011;20968;42.696;23.360;2022-12-07T03:43:31;44.83;;;19.50;;
34741;SDS011;20968;42.696;23.360;2022-12-07T03:48:51;53.90;;;19.58;;
34741;SDS011;20968;42.696;23.360;2022-12-07T03:51:26;44.20;;;19.25;;
34741;SDS011;20968;42.696;23.360;2022-12-07T03:54:02;45.22;;;20.90;;
34741;SDS011;20968;42.696;23.360;2022-12-07T03:56:32;45.63;;;20.83;;
34741;SDS011;20968;42.696;23.360;2022-12-07T03:58:58;48.72;;;19.85;;
34741;SDS011;20968;42.696;23.360;2022-12-07T04:01:24;44.78;;;21.23;;
34741;SDS011;20968;42.696;23.360;2022-12-07T04:03:49;37.88;;;21.60;;
34741;SDS011;20968;42.696;23.360;2022-12-07T04:06:15;51.33;;;24.10;;
34741;SDS011;20968;42.696;23.360;2022-12-07T04:08:40;37.35;;;20.75;;
34741;SDS011;20968;42.696;23.360;2022-12-07T04:11:06;36.92;;;18.67;;
34741;SDS011;20968;42.696;23.360;2022-12-07T04:13:31;37.65;;;16.95;;
34741;SDS011;20968;42.696;23.360;2022-12-07T04:16:17;42.58;;;17.23;;
34741;SDS011;20968;42.696;23.360;2022-12-07T04:18:42;40.28;;;17.95;;
34741;SDS011;20968;42.696;23.360;2022-12-07T04:21:08;36.40;;;15.80;;
34741;SDS011;20968;42.696;23.360;2022-12-07T04:23:33;33.60;;;15.55;;
34741;SDS011;20968;42.696;23.360;2022-12-07T04:25:58;32.33;;;15.65;;
34741;SDS011;20968;42.696;23.360;2022-12-07T04:28:24;29.50;;;15.30;;
34741;SDS011;20968;42.696;23.360;2022-12-07T04:30:49;40.17;;;14.95;;
34741;SDS011;20968;42.696;23.360;2022-12-07T04:33:14;31.27;;;14.20;;
34741;SDS011;20968;42.696;23.360;2022-12-07T04:35:41;32.20;;;13.57;;
34741;SDS011;20968;42.696;23.360;2022-12-07T04:38:07;34.15;;;16.30;;
34741;SDS011;20968;42.696;23.360;2022-12-07T04:40:33;31.42;;;15.73;;
34741;SDS011;20968;42.696;23.360;2022-12-07T04:42:59;34.00;;;16.27;;
34741;SDS011;20968;42.696;23.360;2022-12-07T04:45:24;33.72;;;16.02;;
34741;SDS011;20968;42.696;23.360;2022-12-07T04:47:50;35.20;;;14.77;;
34741;SDS011;20968;42.696;23.360;2022-12-07T04:50:15;35.03;;;16.02;;
34741;SDS011;20968;42.696;23.360;2022-12-07T04:52:41;35.70;;;16.60;;
34741;SDS011;20968;42.696;23.360;2022-12-07T04:55:06;34.30;;;15.43;;
34741;SDS011;20968;42.696;23.360;2022-12-07T04:57:32;30.90;;;15.07;;
34741;SDS011;20968;42.696;23.360;2022-12-07T04:59:57;33.70;;;13.73;;
34741;SDS011;20968;42.696;23.360;2022-12-07T05:02:22;28.13;;;13.32;;
34741;SDS011;20968;42.696;23.360;2022-12-07T05:04:48;29.55;;;14.00;;
34741;SDS011;20968;42.696;23.360;2022-12-07T05:07:13;26.48;;;15.05;;
34741;SDS011;20968;42.696;23.360;2022-12-07T05:09:39;32.35;;;12.82;;
34741;SDS011;20968;42.696;23.360;2022-12-07T05:12:04;29.80;;;13.63;;
34741;SDS011;20968;42.696;23.360;2022-12-07T05:14:29;39.75;;;17.17;;
34741;SDS011;20968;42.696;23.360;2022-12-07T05:16:55;48.05;;;22.25;;
34741;SDS011;20968;42.696;23.360;2022-12-07T05:19:20;42.53;;;19.00;;
34741;SDS011;20968;42.696;23.360;2022-12-07T05:21:46;33.13;;;16.98;;
34741;SDS011;20968;42.696;23.360;2022-12-07T05:24:12;43.83;;;18.20;;
34741;SDS011;20968;42.696;23.360;2022-12-07T05:26:39;34.72;;;16.60;;
34741;SDS011;20968;42.696;23.360;2022-12-07T05:29:05;29.60;;;14.80;;
34741;SDS011;20968;42.696;23.360;2022-12-07T05:31:31;39.13;;;16.70;;
34741;SDS011;20968;42.696;23.360;2022-12-07T05:33:56;29.42;;;15.20;;
34741;SDS011;20968;42.696;23.360;2022-12-07T05:36:22;36.53;;;15.48;;
34741;SDS011;20968;42.696;23.360;2022-12-07T05:38:48;34.72;;;15.90;;
34741;SDS011;20968;42.696;23.360;2022-12-07T05:41:14;34.17;;;15.20;;
34741;SDS011;20968;42.696;23.360;2022-12-07T05:44:00;32.67;;;14.65;;
34741;SDS011;20968;42.696;23.360;2022-12-07T05:46:26;28.63;;;14.27;;
34741;SDS011;20968;42.696;23.360;2022-12-07T05:48:51;42.75;;;14.80;;
34741;SDS011;20968;42.696;23.360;2022-12-07T05:51:17;21.83;;;11.35;;
34741;SDS011;20968;42.696;23.360;2022-12-07T05:53:43;27.98;;;12.38;;
34741;SDS011;20968;42.696;23.360;2022-12-07T05:56:09;39.67;;;17.05;;
34741;SDS011;20968;42.696;23.360;2022-12-07T05:58:34;40.20;;;17.88;;
34741;SDS011;20968;42.696;23.360;2022-12-07T06:01:18;54.50;;;21.60;;
34741;SDS011;20968;42.696;23.360;2022-12-07T06:03:43;41.95;;;19.45;;
34741;SDS011;20968;42.696;23.360;2022-12-07T06:06:10;40.60;;;16.63;;
34741;SDS011;20968;42.696;23.360;2022-12-07T06:08:35;44.63;;;17.83;;
34741;SDS011;20968;42.696;23.360;2022-12-07T06:11:01;65.60;;;25.17;;
34741;SDS011;20968;42.696;23.360;2022-12-07T06:13:44;43.65;;;19.45;;
34741;SDS011;20968;42.696;23.360;2022-12-07T06:16:10;44.75;;;20.65;;
34741;SDS011;20968;42.696;23.360;2022-12-07T06:18:35;47.72;;;20.23;;
34741;SDS011;20968;42.696;23.360;2022-12-07T06:21:01;37.70;;;17.75;;
34741;SDS011;20968;42.696;23.360;2022-12-07T06:23:26;36.78;;;17.40;;
34741;SDS011;20968;42.696;23.360;2022-12-07T06:25:51;33.47;;;15.75;;
34741;SDS011;20968;42.696;23.360;2022-12-07T06:28:17;35.70;;;16.40;;
34741;SDS011;20968;42.696;23.360;2022-12-07T06:30:42;38.50;;;19.95;;
34741;SDS011;20968;42.696;23.360;2022-12-07T06:33:08;38.30;;;18.20;;
34741;SDS011;20968;42.696;23.360;2022-12-07T06:35:33;43.13;;;17.65;;
34741;SDS011;20968;42.696;23.360;2022-12-07T06:37:59;40.75;;;19.23;;
34741;SDS011;20968;42.696;23.360;2022-12-07T06:40:24;46.38;;;20.20;;
34741;SDS011;20968;42.696;23.360;2022-12-07T06:42:49;40.88;;;18.05;;
34741;SDS011;20968;42.696;23.360;2022-12-07T06:45:15;41.15;;;17.83;;
34741;SDS011;20968;42.696;23.360;2022-12-07T06:47:40;39.45;;;19.30;;
34741;SDS011;20968;42.696;23.360;2022-12-07T06:50:06;49.60;;;21.73;;
34741;SDS011;20968;42.696;23.360;2022-12-07T06:52:33;51.25;;;21.30;;
34741;SDS011;20968;42.696;23.360;2022-12-07T06:54:58;41.70;;;22.08;;
34741;SDS011;20968;42.696;23.360;2022-12-07T06:57:24;49.90;;;21.70;;
34741;SDS011;20968;42.696;23.360;2022-12-07T06:59:50;47.72;;;22.17;;
34741;SDS011;20968;42.696;23.360;2022-12-07T07:02:15;42.90;;;21.08;;
34741;SDS011;20968;42.696;23.360;2022-12-07T07:04:41;44.28;;;21.48;;
34741;SDS011;20968;42.696;23.360;2022-12-07T07:07:07;47.33;;;25.33;;
34741;SDS011;20968;42.696;23.360;2022-12-07T07:09:32;55.35;;;25.20;;
34741;SDS011;20968;42.696;23.360;2022-12-07T07:11:57;48.95;;;24.25;;
34741;SDS011;20968;42.696;23.360;2022-12-07T07:14:23;50.78;;;25.48;;
34741;SDS011;20968;42.696;23.360;2022-12-07T07:16:48;62.83;;;30.35;;
34741;SDS011;20968;42.696;23.360;2022-12-07T07:19:14;58.28;;;28.80;;
34741;SDS011;20968;42.696;23.360;2022-12-07T07:21:39;59.50;;;28.85;;
34741;SDS011;20968;42.696;23.360;2022-12-07T07:24:05;70.68;;;32.67;;
34741;SDS011;20968;42.696;23.360;2022-12-07T07:26:30;54.35;;;27.98;;
34741;SDS011;20968;42.696;23.360;2022-12-07T07:28:56;57.20;;;26.27;;
34741;SDS011;20968;42.696;23.360;2022-12-07T07:31:21;63.13;;;25.95;;
34741;SDS011;20968;42.696;23.360;2022-12-07T07:33:47;50.50;;;25.75;;
34741;SDS011;20968;42.696;23.360;2022-12-07T07:36:12;54.38;;;25.52;;
34741;SDS011;20968;42.696;23.360;2022-12-07T07:38:37;64.38;;;27.85;;
34741;SDS011;20968;42.696;23.360;2022-12-07T07:41:03;58.28;;;30.55;;
34741;SDS011;20968;42.696;23.360;2022-12-07T07:43:28;59.08;;;29.20;;
34741;SDS011;20968;42.696;23.360;2022-12-07T07:45:54;57.53;;;29.85;;
34741;SDS011;20968;42.696;23.360;2022-12-07T07:48:19;60.90;;;28.15;;
34741;SDS011;20968;42.696;23.360;2022-12-07T07:50:45;59.40;;;28.55;;
34741;SDS011;20968;42.696;23.360;2022-12-07T07:53:10;60.80;;;30.05;;
34741;SDS011;20968;42.696;23.360;2022-12-07T07:55:36;57.15;;;27.00;;
34741;SDS011;20968;42.696;23.360;2022-12-07T07:58:01;42.85;;;23.20;;
34741;SDS011;20968;42.696;23.360;2022-12-07T08:00:27;48.15;;;24.05;;
34741;SDS011;20968;42.696;23.360;2022-12-07T08:02:53;46.78;;;24.48;;
34741;SDS011;20968;42.696;23.360;2022-12-07T08:05:19;38.67;;;19.70;;
34741;SDS011;20968;42.696;23.360;2022-12-07T08:07:44;40.40;;;20.38;;
34741;SDS011;20968;42.696;23.360;2022-12-07T08:10:10;47.75;;;20.50;;
34741;SDS011;20968;42.696;23.360;2022-12-07T08:12:38;42.95;;;19.23;;
34741;SDS011;20968;42.696;23.360;2022-12-07T08:15:25;39.22;;;19.60;;
34741;SDS011;20968;42.696;23.360;2022-12-07T08:17:51;49.95;;;20.55;;
34741;SDS011;20968;42.696;23.360;2022-12-07T08:20:16;33.28;;;14.10;;
34741;SDS011;20968;42.696;23.360;2022-12-07T08:22:42;55.22;;;21.02;;
34741;SDS011;20968;42.696;23.360;2022-12-07T08:25:07;46.97;;;20.17;;
34741;SDS011;20968;42.696;23.360;2022-12-07T08:27:33;45.10;;;19.55;;
34741;SDS011;20968;42.696;23.360;2022-12-07T08:29:58;50.13;;;22.38;;
34741;SDS011;20968;42.696;23.360;2022-12-07T08:32:23;49.67;;;21.73;;
34741;SDS011;20968;42.696;23.360;2022-12-07T08:34:49;48.60;;;20.00;;
34741;SDS011;20968;42.696;23.360;2022-12-07T08:37:14;49.42;;;20.85;;
34741;SDS011;20968;42.696;23.360;2022-12-07T08:39:40;28.48;;;13.23;;
34741;SDS011;20968;42.696;23.360;2022-12-07T08:42:06;41.17;;;19.40;;
34741;SDS011;20968;42.696;23.360;2022-12-07T08:44:31;42.90;;;21.00;;
34741;SDS011;20968;42.696;23.360;2022-12-07T08:46:58;40.22;;;20.33;;
34741;SDS011;20968;42.696;23.360;2022-12-07T08:49:29;36.97;;;19.25;;
34741;SDS011;20968;42.696;23.360;2022-12-07T08:51:58;41.97;;;20.15;;
34741;SDS011;20968;42.696;23.360;2022-12-07T08:54:23;40.33;;;19.85;;
34741;SDS011;20968;42.696;23.360;2022-12-07T08:56:49;39.97;;;20.13;;
34741;SDS011;20968;42.696;23.360;2022-12-07T08:59:19;40.72;;;20.63;;
34741;SDS011;20968;42.696;23.360;2022-12-07T09:01:45;40.35;;;21.45;;
34741;SDS011;20968;42.696;23.360;2022-12-07T09:04:11;43.50;;;21.45;;
34741;SDS011;20968;42.696;23.360;2022-12-07T09:06:36;44.45;;;19.90;;
34741;SDS011;20968;42.696;23.360;2022-12-07T09:09:02;46.28;;;22.65;;
34741;SDS011;20968;42.696;23.360;2022-12-07T09:11:29;42.97;;;21.23;;
34741;SDS011;20968;42.696;23.360;2022-12-07T09:13:54;38.45;;;18.50;;
34741;SDS011;20968;42.696;23.360;2022-12-07T09:16:20;34.80;;;17.75;;
34741;SDS011;20968;42.696;23.360;2022-12-07T09:18:46;40.25;;;18.83;;
34741;SDS011;20968;42.696;23.360;2022-12-07T09:21:11;43.60;;;18.63;;
34741;SDS011;20968;42.696;23.360;2022-12-07T09:23:37;42.53;;;16.38;;
34741;SDS011;20968;42.696;23.360;2022-12-07T09:26:02;44.10;;;19.65;;
34741;SDS011;20968;42.696;23.360;2022-12-07T09:28:29;34.78;;;17.98;;
34741;SDS011;20968;42.696;23.360;2022-12-07T09:30:56;41.58;;;18.75;;
34741;SDS011;20968;42.696;23.360;2022-12-07T09:33:21;41.90;;;18.45;;
34741;SDS011;20968;42.696;23.360;2022-12-07T09:35:47;38.05;;;18.90;;
34741;SDS011;20968;42.696;23.360;2022-12-07T09:38:14;49.72;;;19.98;;
34741;SDS011;20968;42.696;23.360;2022-12-07T09:40:41;44.42;;;19.42;;
34741;SDS011;20968;42.696;23.360;2022-12-07T09:43:12;50.47;;;20.10;;
34741;SDS011;20968;42.696;23.360;2022-12-07T09:45:39;41.72;;;20.77;;
34741;SDS011;20968;42.696;23.360;2022-12-07T09:48:09;43.03;;;19.85;;
34741;SDS011;20968;42.696;23.360;2022-12-07T09:50:43;42.97;;;18.92;;
34741;SDS011;20968;42.696;23.360;2022-12-07T09:53:09;47.90;;;22.55;;
34741;SDS011;20968;42.696;23.360;2022-12-07T09:55:48;40.35;;;19.48;;
34741;SDS011;20968;42.696;23.360;2022-12-07T09:58:19;43.17;;;21.38;;
34741;SDS011;20968;42.696;23.360;2022-12-07T10:03:32;49.10;;;21.08;;
34741;SDS011;20968;42.696;23.360;2022-12-07T10:05:57;40.30;;;19.92;;
34741;SDS011;20968;42.696;23.360;2022-12-07T10:08:24;42.70;;;20.83;;
34741;SDS011;20968;42.696;23.360;2022-12-07T10:10:53;38.05;;;19.65;;
34741;SDS011;20968;42.696;23.360;2022-12-07T10:16:01;50.67;;;18.25;;
34741;SDS011;20968;42.696;23.360;2022-12-07T10:18:31;34.65;;;18.73;;
34741;SDS011;20968;42.696;23.360;2022-12-07T10:23:40;37.97;;;19.27;;
34741;SDS011;20968;42.696;23.360;2022-12-07T10:26:50;39.63;;;19.67;;
34741;SDS011;20968;42.696;23.360;2022-12-07T10:29:00;51.10;;;21.65;;
34741;SDS011;20968;42.696;23.360;2022-12-07T10:31:38;36.05;;;19.10;;
34741;SDS011;20968;42.696;23.360;2022-12-07T10:34:08;40.80;;;17.67;;
34741;SDS011;20968;42.696;23.360;2022-12-07T10:36:47;40.83;;;19.23;;
34741;SDS011;20968;42.696;23.360;2022-12-07T10:39:17;38.03;;;18.40;;
34741;SDS011;20968;42.696;23.360;2022-12-07T10:41:55;47.30;;;23.25;;
34741;SDS011;20968;42.696;23.360;2022-12-07T10:44:23;46.67;;;24.15;;
34741;SDS011;20968;42.696;23.360;2022-12-07T10:55:39;46.63;;;19.85;;
34741;SDS011;20968;42.696;23.360;2022-12-07T10:58:03;39.70;;;20.73;;
34741;SDS011;20968;42.696;23.360;2022-12-07T11:01:01;40.67;;;19.52;;
34741;SDS011;20968;42.696;23.360;2022-12-07T11:06:41;39.47;;;18.92;;
34741;SDS011;20968;42.696;23.360;2022-12-07T11:12:22;42.80;;;19.90;;
34741;SDS011;20968;42.696;23.360;2022-12-07T11:14:54;41.80;;;19.17;;
34741;SDS011;20968;42.696;23.360;2022-12-07T11:20:03;33.60;;;16.00;;
34741;SDS011;20968;42.696;23.360;2022-12-07T11:30:26;29.60;;;12.00;;
34741;SDS011;20968;42.696;23.360;2022-12-07T11:33:16;23.08;;;11.82;;
34741;SDS011;20968;42.696;23.360;2022-12-07T11:35:50;26.33;;;11.20;;
34741;SDS011;20968;42.696;23.360;2022-12-07T11:38:38;22.13;;;10.95;;
34741;SDS011;20968;42.696;23.360;2022-12-07T11:41:05;27.20;;;13.85;;
34741;SDS011;20968;42.696;23.360;2022-12-07T11:43:46;24.10;;;12.50;;
34741;SDS011;20968;42.696;23.360;2022-12-07T11:46:18;28.95;;;14.35;;
34741;SDS011;20968;42.696;23.360;2022-12-07T11:49:03;35.80;;;15.98;;
34741;SDS011;20968;42.696;23.360;2022-12-07T11:51:37;32.05;;;16.67;;
34741;SDS011;20968;42.696;23.360;2022-12-07T11:54:11;30.40;;;13.63;;
34741;SDS011;20968;42.696;23.360;2022-12-07T11:56:41;31.35;;;14.32;;
34741;SDS011;20968;42.696;23.360;2022-12-07T12:01:57;26.48;;;12.73;;
34741;SDS011;20968;42.696;23.360;2022-12-07T12:04:32;28.02;;;13.65;;
34741;SDS011;20968;42.696;23.360;2022-12-07T12:07:21;23.58;;;12.13;;
34741;SDS011;20968;42.696;23.360;2022-12-07T12:09:50;25.85;;;12.45;;
34741;SDS011;20968;42.696;23.360;2022-12-07T12:15:18;26.90;;;11.70;;
34741;SDS011;20968;42.696;23.360;2022-12-07T12:21:22;29.80;;;12.48;;
34741;SDS011;20968;42.696;23.360;2022-12-07T12:24:00;25.85;;;11.88;;
34741;SDS011;20968;42.696;23.360;2022-12-07T12:26:35;22.27;;;12.20;;
34741;SDS011;20968;42.696;23.360;2022-12-07T12:29:06;31.52;;;15.02;;
34741;SDS011;20968;42.696;23.360;2022-12-07T12:42:47;31.83;;;15.60;;
34741;SDS011;20968;42.696;23.360;2022-12-07T12:48:04;40.28;;;18.83;;
34741;SDS011;20968;42.696;23.360;2022-12-07T12:50:48;36.00;;;18.85;;
34741;SDS011;20968;42.696;23.360;2022-12-07T12:53:21;40.47;;;19.83;;
34741;SDS011;20968;42.696;23.360;2022-12-07T13:00:45;44.17;;;19.95;;
34741;SDS011;20968;42.696;23.360;2022-12-07T13:06:31;39.65;;;19.25;;
34741;SDS011;20968;42.696;23.360;2022-12-07T13:09:02;38.45;;;18.77;;
34741;SDS011;20968;42.696;23.360;2022-12-07T13:11:35;75.80;;;36.92;;
34741;SDS011;20968;42.696;23.360;2022-12-07T13:17:12;220.90;;;75.57;;
34741;SDS011;20968;42.696;23.360;2022-12-07T13:19:57;41.92;;;20.45;;
34741;SDS011;20968;42.696;23.360;2022-12-07T13:22:34;25.13;;;12.93;;
34741;SDS011;20968;42.696;23.360;2022-12-07T13:25:17;58.28;;;24.52;;
34741;SDS011;20968;42.696;23.360;2022-12-07T13:28:02;54.65;;;30.08;;
34741;SDS011;20968;42.696;23.360;2022-12-07T13:33:20;34.15;;;12.10;;
34741;SDS011;20968;42.696;23.360;2022-12-07T13:35:45;21.23;;;10.88;;
34741;SDS011;20968;42.696;23.360;2022-12-07T13:38:30;29.80;;;13.57;;
34741;SDS011;20968;42.696;23.360;2022-12-07T13:43:29;23.65;;;13.23;;
34741;SDS011;20968;42.696;23.360;2022-12-07T13:45:56;25.13;;;12.80;;
34741;SDS011;20968;42.696;23.360;2022-12-07T13:48:43;26.17;;;14.57;;
34741;SDS011;20968;42.696;23.360;2022-12-07T13:51:16;31.45;;;14.25;;
34741;SDS011;20968;42.696;23.360;2022-12-07T13:53:48;27.10;;;13.77;;
34741;SDS011;20968;42.696;23.360;2022-12-07T13:56:15;29.33;;;15.13;;
34741;SDS011;20968;42.696;23.360;2022-12-07T13:58:41;29.33;;;12.98;;
34741;SDS011;20968;42.696;23.360;2022-12-07T14:01:07;31.80;;;14.23;;
34741;SDS011;20968;42.696;23.360;2022-12-07T14:03:33;33.63;;;14.90;;
34741;SDS011;20968;42.696;23.360;2022-12-07T14:08:31;42.42;;;15.20;;
34741;SDS011;20968;42.696;23.360;2022-12-07T14:10:57;24.15;;;12.73;;
34741;SDS011;20968;42.696;23.360;2022-12-07T14:15:59;34.47;;;14.27;;
34741;SDS011;20968;42.696;23.360;2022-12-07T14:26:33;31.77;;;12.70;;
34741;SDS011;20968;42.696;23.360;2022-12-07T14:31:50;62.85;;;33.22;;
34741;SDS011;20968;42.696;23.360;2022-12-07T14:34:16;58.00;;;27.33;;
34741;SDS011;20968;42.696;23.360;2022-12-07T14:36:44;47.83;;;23.33;;
34741;SDS011;20968;42.696;23.360;2022-12-07T14:39:09;39.63;;;19.85;;
34741;SDS011;20968;42.696;23.360;2022-12-07T14:41:35;34.75;;;17.85;;
34741;SDS011;20968;42.696;23.360;2022-12-07T14:44:16;36.95;;;16.83;;
34741;SDS011;20968;42.696;23.360;2022-12-07T14:46:42;29.38;;;15.98;;
34741;SDS011;20968;42.696;23.360;2022-12-07T14:49:09;25.65;;;14.52;;
34741;SDS011;20968;42.696;23.360;2022-12-07T14:51:35;33.67;;;17.23;;
34741;SDS011;20968;42.696;23.360;2022-12-07T14:54:04;41.85;;;17.83;;
34741;SDS011;20968;42.696;23.360;2022-12-07T14:56:31;31.73;;;15.85;;
34741;SDS011;20968;42.696;23.360;2022-12-07T14:58:57;40.97;;;18.40;;
34741;SDS011;20968;42.696;23.360;2022-12-07T15:01:22;46.05;;;18.02;;
34741;SDS011;20968;42.696;23.360;2022-12-07T15:03:48;36.78;;;16.85;;
34741;SDS011;20968;42.696;23.360;2022-12-07T15:06:14;31.98;;;15.88;;
34741;SDS011;20968;42.696;23.360;2022-12-07T15:08:41;31.45;;;15.20;;
34741;SDS011;20968;42.696;23.360;2022-12-07T15:11:09;32.65;;;15.40;;
34741;SDS011;20968;42.696;23.360;2022-12-07T15:13:38;38.13;;;19.00;;
34741;SDS011;20968;42.696;23.360;2022-12-07T15:16:22;60.97;;;26.95;;
34741;SDS011;20968;42.696;23.360;2022-12-07T15:18:47;72.00;;;36.42;;
34741;SDS011;20968;42.696;23.360;2022-12-07T15:21:13;77.72;;;39.92;;
34741;SDS011;20968;42.696;23.360;2022-12-07T15:23:39;75.57;;;37.90;;
34741;SDS011;20968;42.696;23.360;2022-12-07T15:26:05;58.78;;;30.60;;
34741;SDS011;20968;42.696;23.360;2022-12-07T15:28:30;54.28;;;24.85;;
34741;SDS011;20968;42.696;23.360;2022-12-07T15:30:55;77.25;;;35.53;;
34741;SDS011;20968;42.696;23.360;2022-12-07T15:33:21;67.45;;;31.52;;
34741;SDS011;20968;42.696;23.360;2022-12-07T15:35:46;58.10;;;29.58;;
34741;SDS011;20968;42.696;23.360;2022-12-07T15:38:12;57.75;;;28.75;;
34741;SDS011;20968;42.696;23.360;2022-12-07T15:40:38;61.50;;;27.45;;
34741;SDS011;20968;42.696;23.360;2022-12-07T15:43:03;48.03;;;23.70;;
34741;SDS011;20968;42.696;23.360;2022-12-07T15:45:29;72.07;;;30.98;;
34741;SDS011;20968;42.696;23.360;2022-12-07T15:47:55;53.95;;;26.13;;
34741;SDS011;20968;42.696;23.360;2022-12-07T15:50:20;54.65;;;27.20;;
34741;SDS011;20968;42.696;23.360;2022-12-07T15:52:46;57.67;;;29.38;;
34741;SDS011;20968;42.696;23.360;2022-12-07T15:55:11;45.80;;;22.85;;
34741;SDS011;20968;42.696;23.360;2022-12-07T15:57:37;51.60;;;23.50;;
34741;SDS011;20968;42.696;23.360;2022-12-07T16:00:07;58.45;;;24.48;;
34741;SDS011;20968;42.696;23.360;2022-12-07T16:02:33;64.80;;;25.70;;
34741;SDS011;20968;42.696;23.360;2022-12-07T16:04:59;68.03;;;28.13;;
34741;SDS011;20968;42.696;23.360;2022-12-07T16:07:25;48.03;;;22.38;;
34741;SDS011;20968;42.696;23.360;2022-12-07T16:09:51;49.40;;;24.17;;
34741;SDS011;20968;42.696;23.360;2022-12-07T16:12:16;100.82;;;48.50;;
34741;SDS011;20968;42.696;23.360;2022-12-07T16:14:42;76.53;;;30.48;;
34741;SDS011;20968;42.696;23.360;2022-12-07T16:17:08;68.15;;;31.60;;
34741;SDS011;20968;42.696;23.360;2022-12-07T16:19:34;59.50;;;28.98;;